Time;durP1;ratioP1;P1;durP2;ratioP2;P2;SDS_P1;SDS_P2;PMS_P1;PMS_P2;Temp;Humidity;BMP_temperature;BMP_pressure;BME280_temperature;BME280_humidity;BME280_pressure;Samples;Min_cycle;Max_cycle;Signal;HPM_P1;HPM_P2
2023/09/12 04:31:59;;;;;;;;;10.50;10.50;;;;;31.95;39.41;100863.13;1436537;25;46026;-74
2023/09/12 04:34:25;;;;;;;;;12.25;9.75;;;;;31.90;39.45;100869.28;5077006;28;45467;-74
2023/09/12 04:36:51;;;;;;;;;11.50;11.50;;;;;31.93;39.81;100871.66;5076545;28;45210;-74
2023/09/12 04:39:16;;;;;;;;;13.75;13.50;;;;;31.95;39.80;100869.53;5076948;28;46177;-74
2023/09/12 04:41:41;;;;;;;;;13.75;13.75;;;;;31.99;39.38;100869.97;5076891;28;45397;-74
2023/09/12 04:44:07;;;;;;;;;13.75;12.25;;;;;31.85;39.35;100876.53;5058932;28;45654;-75
2023/09/12 04:46:32;;;;;;;;;17.25;16.00;;;;;31.78;39.56;100870.94;5076801;28;45382;-74
2023/09/12 04:48:57;;;;;;;;;10.75;10.75;;;;;31.76;39.76;100889.69;5076882;28;45476;-76
2023/09/12 04:51:23;;;;;;;;;11.00;10.50;;;;;31.71;40.20;100886.69;5076494;28;45469;-74
2023/09/12 04:53:51;;;;;;;;;10.75;10.75;;;;;31.71;40.13;100881.16;5077044;28;45871;-75
2023/09/12 04:56:17;;;;;;;;;11.75;11.75;;;;;31.71;39.98;100874.75;5062961;28;45396;-74
2023/09/12 04:58:42;;;;;;;;;12.50;11.50;;;;;31.83;39.28;100879.50;5076398;28;46117;-77
2023/09/12 05:01:09;;;;;;;;;9.25;9.25;;;;;31.75;40.01;100863.03;5076311;28;45329;-75
2023/09/12 05:03:34;;;;;;;;;14.50;14.50;;;;;31.87;39.60;100874.41;5076564;28;45375;-75
2023/09/12 05:05:59;;;;;;;;;14.00;13.50;;;;;31.88;39.85;100868.66;5076046;28;45545;-74
2023/09/12 05:08:25;;;;;;;;;15.00;14.25;;;;;31.84;39.50;100866.50;5076671;28;45343;-77
2023/09/12 05:10:50;;;;;;;;;14.00;14.00;;;;;31.63;39.68;100872.16;5076532;28;45386;-75
2023/09/12 05:13:15;;;;;;;;;14.75;13.25;;;;;31.54;40.44;100871.44;5078364;28;45339;-76
2023/09/12 05:15:41;;;;;;;;;14.25;13.50;;;;;31.55;39.89;100868.47;5060621;28;45838;-75
2023/09/12 05:18:07;;;;;;;;;15.25;14.50;;;;;31.53;39.88;100886.34;5076541;28;47295;-75
2023/09/12 05:20:35;;;;;;;;;13.75;12.00;;;;;31.53;40.16;100889.09;5077516;28;45789;-75
2023/09/12 05:23:00;;;;;;;;;13.25;13.25;;;;;31.56;40.00;100891.44;5059064;28;45385;-74
2023/09/12 05:25:31;;;;;;;;;15.00;14.75;;;;;31.67;39.92;100915.88;5078422;28;48204;-77
2023/09/12 05:27:56;;;;;;;;;19.75;16.25;;;;;31.67;39.72;100902.00;5077675;28;45177;-74
2023/09/12 05:30:22;;;;;;;;;19.50;16.75;;;;;31.71;39.90;100900.56;5057923;28;45433;-75
2023/09/12 05:32:47;;;;;;;;;18.50;17.75;;;;;31.67;39.73;100882.59;5057533;28;45434;-76
2023/09/12 05:35:13;;;;;;;;;18.50;17.25;;;;;31.73;39.56;100898.41;5057409;28;46091;-74
2023/09/12 05:37:38;;;;;;;;;16.50;15.50;;;;;31.84;39.53;100889.53;5076278;28;45467;-73
2023/09/12 05:40:05;;;;;;;;;17.75;17.25;;;;;31.90;39.73;100901.75;5076809;28;45387;-74
2023/09/12 05:42:31;;;;;;;;;16.50;14.75;;;;;31.91;39.62;100887.63;5058130;28;45401;-75
2023/09/12 05:44:57;;;;;;;;;17.00;15.50;;;;;31.93;39.12;100887.44;5057304;28;45497;-76
2023/09/12 05:47:22;;;;;;;;;24.75;20.50;;;;;31.92;39.36;100886.59;5075943;28;45422;-75
2023/09/12 05:49:48;;;;;;;;;19.25;19.25;;;;;31.93;39.33;100888.28;5075708;28;45343;-76
2023/09/12 05:52:14;;;;;;;;;16.00;16.00;;;;;32.01;39.62;100883.63;5076121;28;45246;-77
2023/09/12 05:54:44;;;;;;;;;19.75;19.75;;;;;32.08;38.92;100893.69;5075408;28;45396;-77
2023/09/12 05:57:11;;;;;;;;;23.00;21.25;;;;;32.09;38.90;100889.84;5075805;28;46452;-74
2023/09/12 05:59:37;;;;;;;;;19.75;17.75;;;;;32.00;39.37;100896.63;5057305;28;45359;-74
2023/09/12 06:02:04;;;;;;;;;17.00;16.00;;;;;32.00;39.45;100881.91;5070497;28;45521;-75
2023/09/12 06:04:30;;;;;;;;;18.25;18.25;;;;;32.06;38.81;100894.97;5050264;28;45319;-74
2023/09/12 06:06:55;;;;;;;;;18.50;18.50;;;;;32.18;39.15;100896.09;5065518;28;46144;-75
2023/09/12 06:09:21;;;;;;;;;19.00;16.75;;;;;32.14;38.89;100894.81;5075583;28;45335;-76
2023/09/12 06:11:46;;;;;;;;;17.50;17.50;;;;;32.22;39.47;100912.16;5075910;28;45207;-73
2023/09/12 06:14:11;;;;;;;;;22.25;19.00;;;;;32.20;38.92;100916.19;5057007;28;45444;-75
2023/09/12 06:16:37;;;;;;;;;22.00;21.50;;;;;32.17;39.46;100913.81;5075009;28;46043;-74
2023/09/12 06:19:02;;;;;;;;;20.00;20.00;;;;;32.13;39.18;100910.59;5056887;28;45504;-74
2023/09/12 06:21:27;;;;;;;;;20.25;18.25;;;;;32.16;39.09;100906.56;5074223;28;45524;-76
2023/09/12 06:24:21;;;;;;;;;20.75;19.50;;;;;32.17;39.33;100908.28;5056729;28;45496;-70
2023/09/12 06:26:47;;;;;;;;;19.50;17.00;;;;;32.26;38.68;100907.88;5075056;28;46124;-73
2023/09/12 06:29:14;;;;;;;;;19.00;15.75;;;;;32.01;38.96;100909.44;5056726;28;45588;-74
2023/09/12 06:31:41;;;;;;;;;15.75;15.75;;;;;31.75;39.05;100898.22;5074950;28;45294;-76
2023/09/12 06:34:06;;;;;;;;;17.00;17.00;;;;;31.74;39.75;100918.69;5074101;28;45424;-76
2023/09/12 06:36:32;;;;;;;;;16.75;13.50;;;;;31.71;39.35;100917.19;5073684;28;45384;-75
2023/09/12 06:38:59;;;;;;;;;15.00;15.00;;;;;31.66;40.16;100913.31;5075097;28;45373;-76
2023/09/12 06:41:25;;;;;;;;;16.50;16.00;;;;;31.75;39.86;100909.31;5074901;28;45184;-78
2023/09/12 06:43:51;;;;;;;;;15.25;15.25;;;;;31.73;40.26;100905.91;5074844;28;45320;-75
2023/09/12 06:46:19;;;;;;;;;12.75;12.50;;;;;31.79;39.79;100907.84;5074601;28;45480;-76
2023/09/12 06:48:45;;;;;;;;;14.50;13.00;;;;;31.85;39.88;100901.47;5074904;28;45341;-75
2023/09/12 06:51:12;;;;;;;;;12.25;11.00;;;;;31.84;39.33;100911.72;5074665;28;45563;-82
2023/09/12 06:53:37;;;;;;;;;12.00;11.00;;;;;32.00;39.89;100912.44;5056554;28;45986;-79
2023/09/12 06:56:06;;;;;;;;;14.75;13.00;;;;;32.04;39.49;100897.09;5061050;28;46112;-83
2023/09/12 06:58:32;;;;;;;;;18.00;12.50;;;;;32.08;39.58;100903.94;5070064;28;45557;-78
2023/09/12 07:01:02;;;;;;;;;14.00;14.00;;;;;32.11;39.73;100901.59;5057741;28;45495;-77
2023/09/12 07:03:28;;;;;;;;;15.50;15.25;;;;;32.17;39.36;100902.72;5074021;28;45562;-76
2023/09/12 07:05:53;;;;;;;;;16.00;14.50;;;;;32.21;39.66;100913.22;5061153;28;45990;-79
2023/09/12 07:08:20;;;;;;;;;14.00;13.25;;;;;32.22;39.23;100908.53;5074179;28;45300;-77
2023/09/12 07:10:46;;;;;;;;;14.25;12.75;;;;;32.26;39.18;100918.13;5074519;28;45906;-76
2023/09/12 07:13:11;;;;;;;;;14.50;14.50;;;;;32.25;38.79;100920.03;5073057;28;45498;-77
2023/09/12 07:15:37;;;;;;;;;13.00;11.00;;;;;32.17;39.32;100925.78;5063888;28;45490;-77
2023/09/12 07:18:02;;;;;;;;;12.75;12.75;;;;;32.18;38.87;100926.63;5055637;28;45334;-75
2023/09/12 07:20:28;;;;;;;;;17.50;16.50;;;;;32.06;38.85;100929.13;5072584;28;45442;-76
2023/09/12 07:22:53;;;;;;;;;20.00;17.25;;;;;31.85;39.99;100931.97;5062753;28;46171;-77
2023/09/12 07:25:20;;;;;;;;;19.50;18.00;;;;;31.54;40.18;100930.50;5074245;28;50295;-76
2023/09/12 07:27:46;;;;;;;;;15.25;13.75;;;;;31.52;39.97;100921.50;5074467;28;45595;-77
2023/09/12 07:30:11;;;;;;;;;13.75;13.75;;;;;31.54;40.20;100919.41;5074001;28;45356;-76
2023/09/12 07:32:36;;;;;;;;;13.75;13.75;;;;;31.68;39.68;100920.38;5063922;28;45315;-76
2023/09/12 07:35:02;;;;;;;;;15.75;15.75;;;;;31.85;39.28;100930.06;5072461;28;45499;-74
2023/09/12 07:37:28;;;;;;;;;15.50;15.50;;;;;31.92;39.36;100935.66;5055889;28;45303;-77
2023/09/12 07:39:53;;;;;;;;;14.50;14.50;;;;;31.87;39.33;100930.72;5074313;28;45398;-76
2023/09/12 07:42:22;;;;;;;;;16.50;15.25;;;;;31.85;39.32;100930.06;5073213;28;45346;-77
2023/09/12 07:44:48;;;;;;;;;12.25;11.75;;;;;31.75;40.48;100921.25;5073631;28;45674;-77
2023/09/12 07:47:14;;;;;;;;;19.75;16.00;;;;;31.71;39.59;100938.50;5076277;28;45243;-77
2023/09/12 07:49:39;;;;;;;;;13.75;13.75;;;;;31.72;39.69;100938.31;5059199;28;45450;-76
2023/09/12 07:52:05;;;;;;;;;15.50;15.50;;;;;31.84;39.50;100935.81;5077832;28;45400;-76
2023/09/12 07:54:31;;;;;;;;;15.75;15.75;;;;;31.85;39.62;100929.22;5077481;28;45453;-77
2023/09/12 07:56:56;;;;;;;;;11.00;11.00;;;;;31.89;39.25;100934.16;5077919;28;45405;-76
2023/09/12 07:59:22;;;;;;;;;14.25;12.75;;;;;32.10;38.75;100946.19;5077985;28;45505;-77
2023/09/12 08:01:48;;;;;;;;;11.50;11.50;;;;;32.24;38.95;100936.91;5076946;28;45508;-76
2023/09/12 08:04:14;;;;;;;;;11.00;11.00;;;;;32.18;38.71;100930.25;5077953;28;45390;-76
2023/09/12 08:06:41;;;;;;;;;14.00;12.25;;;;;32.19;39.05;100934.75;5077661;28;45283;-77
2023/09/12 08:09:06;;;;;;;;;13.00;11.75;;;;;32.20;38.41;100930.06;5076695;28;45418;-78
2023/09/12 08:11:32;;;;;;;;;14.50;14.50;;;;;32.26;38.95;100940.31;5078393;28;45430;-77
2023/09/12 08:13:57;;;;;;;;;9.50;9.50;;;;;32.24;38.79;100937.75;5079112;28;45511;-78
2023/09/12 08:16:24;;;;;;;;;14.00;14.00;;;;;32.31;38.22;100941.44;5066911;28;45402;-76
2023/09/12 08:18:49;;;;;;;;;12.50;12.50;;;;;32.25;38.44;100941.38;5042879;28;45444;-76
2023/09/12 08:21:14;;;;;;;;;14.75;12.75;;;;;32.31;38.39;100952.53;5068778;28;50327;-78
2023/09/12 08:23:40;;;;;;;;;15.25;15.25;;;;;32.22;38.70;100956.53;5067084;28;45473;-78
2023/09/12 08:26:05;;;;;;;;;11.00;11.00;;;;;32.22;38.76;100953.78;5060702;28;45334;-78
2023/09/12 08:28:30;;;;;;;;;14.00;14.00;;;;;32.15;38.72;100958.41;5078518;28;45300;-77
2023/09/12 08:30:56;;;;;;;;;17.25;17.25;;;;;32.04;39.26;100952.56;5076809;28;56976;-78
2023/09/12 08:33:21;;;;;;;;;13.00;12.75;;;;;31.99;38.94;100955.94;5076902;28;45678;-78
2023/09/12 08:35:47;;;;;;;;;13.00;12.75;;;;;31.88;38.82;100938.00;5076682;28;45344;-77
2023/09/12 08:38:12;;;;;;;;;14.50;14.00;;;;;31.88;39.13;100938.00;5077179;28;45458;-78
2023/09/12 08:40:38;;;;;;;;;14.00;14.00;;;;;31.99;38.91;100944.00;5077065;28;45716;-77
2023/09/12 08:43:04;;;;;;;;;16.25;14.50;;;;;31.89;39.24;100953.56;5076484;28;46098;-78
2023/09/12 08:45:30;;;;;;;;;18.75;17.00;;;;;31.69;39.87;100963.66;5074259;28;45332;-78
2023/09/12 08:47:58;;;;;;;;;12.75;12.25;;;;;31.52;40.21;100965.00;5071760;28;45361;-78
2023/09/12 08:50:24;;;;;;;;;16.25;14.25;;;;;31.43;40.45;100966.19;5076666;28;45516;-76
2023/09/12 08:52:50;;;;;;;;;17.50;14.50;;;;;31.52;39.90;100965.00;5076352;28;45313;-77
2023/09/12 08:55:15;;;;;;;;;14.00;13.50;;;;;31.63;39.52;100966.41;5076030;28;45393;-77
2023/09/12 08:57:43;;;;;;;;;15.25;14.25;;;;;31.65;39.97;100956.78;5076297;28;45419;-78
2023/09/12 09:00:12;;;;;;;;;15.25;14.75;;;;;31.76;39.93;100955.38;5059317;28;45549;-76
2023/09/12 09:02:39;;;;;;;;;15.75;14.25;;;;;31.84;39.48;100956.06;5059318;28;47746;-79
2023/09/12 09:05:06;;;;;;;;;15.50;15.50;;;;;31.86;39.07;100955.88;5076825;28;45394;-78
2023/09/12 09:07:38;;;;;;;;;12.50;12.50;;;;;31.93;39.24;100959.53;5077907;28;45487;-77
2023/09/12 09:10:07;;;;;;;;;10.50;10.50;;;;;32.03;39.52;100961.94;5076992;28;45703;-78
2023/09/12 09:12:40;;;;;;;;;10.00;10.00;;;;;32.07;38.95;100958.53;5077075;28;46230;-77
2023/09/12 09:15:26;;;;;;;;;11.50;11.50;;;;;32.01;38.89;100958.53;5078302;27;45469;-76
2023/09/12 09:17:52;;;;;;;;;9.75;9.75;;;;;32.02;38.89;100954.69;5057805;28;45503;-78
2023/09/12 09:20:30;;;;;;;;;14.25;12.50;;;;;32.04;38.91;100958.13;5059948;27;45245;-76
2023/09/12 09:23:05;;;;;;;;;9.25;9.25;;;;;32.06;38.83;100958.78;5079324;28;45343;-77
2023/09/12 09:25:31;;;;;;;;;13.75;11.00;;;;;32.04;39.27;100963.66;5060941;28;45998;-77
2023/09/12 09:27:56;;;;;;;;;13.00;12.00;;;;;32.05;39.30;100957.91;5062117;28;45432;-79
2023/09/12 09:30:40;;;;;;;;;14.00;14.00;;;;;31.84;39.62;100953.31;5078964;28;45461;-78
2023/09/12 09:33:05;;;;;;;;;14.25;14.25;;;;;31.76;40.96;100956.25;5072264;28;45404;-76
2023/09/12 09:35:31;;;;;;;;;21.25;16.50;;;;;31.58;40.38;100953.09;5078903;28;45441;-78
2023/09/12 09:37:56;;;;;;;;;18.50;18.00;;;;;31.35;40.80;100958.91;5077600;28;45617;-77
2023/09/12 09:40:23;;;;;;;;;18.75;17.75;;;;;31.06;41.87;100947.94;5077183;28;45307;-77
2023/09/12 09:42:53;;;;;;;;;17.50;17.50;;;;;31.00;42.67;100966.22;5075494;28;45444;-78
2023/09/12 09:45:19;;;;;;;;;18.00;16.75;;;;;30.94;43.20;100969.78;5075177;28;45310;-75
2023/09/12 09:47:44;;;;;;;;;19.25;16.00;;;;;30.82;43.42;100979.66;5076002;28;45399;-77
2023/09/12 09:50:14;;;;;;;;;17.50;16.75;;;;;30.67;43.72;100970.53;5075343;28;45349;-76
2023/09/12 09:52:39;;;;;;;;;24.00;23.75;;;;;30.57;44.43;100998.53;5074951;28;45461;-77
2023/09/12 09:55:07;;;;;;;;;26.00;21.50;;;;;30.15;44.74;101007.50;5068788;28;45374;-79
2023/09/12 09:57:38;;;;;;;;;24.25;23.25;;;;;29.81;46.52;101030.16;5050843;28;45453;-77
2023/09/12 10:00:08;;;;;;;;;22.25;20.25;;;;;29.26;47.09;101024.94;5055168;28;45572;-78
2023/09/12 10:02:35;;;;;;;;;21.00;20.25;;;;;29.19;49.24;101038.63;5070933;27;46093;-78
2023/09/12 10:05:05;;;;;;;;;25.50;22.50;;;;;28.96;49.23;101026.72;5075471;28;45531;-77
2023/09/12 10:07:33;;;;;;;;;20.75;18.75;;;;;29.05;48.59;101025.63;5044507;28;45440;-78
2023/09/12 10:10:03;;;;;;;;;21.50;21.50;;;;;29.25;49.21;101034.28;5074616;28;45374;-77
2023/09/12 10:12:31;;;;;;;;;23.75;20.00;;;;;29.20;48.99;101039.47;5076283;28;45443;-76
2023/09/12 10:15:01;;;;;;;;;17.75;17.75;;;;;29.34;48.00;101034.03;5075829;27;45448;-76
2023/09/12 10:17:35;;;;;;;;;22.00;19.75;;;;;29.40;48.45;101024.16;5039733;28;45351;-77
2023/09/12 10:20:04;;;;;;;;;21.00;19.75;;;;;29.37;48.13;101029.19;5055325;28;45442;-76
2023/09/12 10:23:12;;;;;;;;;19.00;19.00;;;;;29.43;48.06;101039.53;5055590;28;47032;-77
2023/09/12 10:25:39;;;;;;;;;20.00;19.00;;;;;29.53;47.81;101032.66;4975192;28;45545;-81
2023/09/12 10:28:05;;;;;;;;;19.25;19.25;;;;;29.75;48.37;101039.22;4974210;28;45368;-77
2023/09/12 10:30:32;;;;;;;;;22.50;18.75;;;;;29.69;47.38;101037.19;5015279;27;45621;-77
2023/09/12 10:33:00;;;;;;;;;18.25;17.75;;;;;29.70;47.19;101038.91;5063693;28;46580;-77
2023/09/12 10:35:26;;;;;;;;;17.75;17.75;;;;;29.82;47.42;101037.41;5054773;28;45370;-78
2023/09/12 10:37:57;;;;;;;;;22.75;20.25;;;;;29.99;46.60;101029.84;5055404;28;45339;-79
2023/09/12 10:40:24;;;;;;;;;15.25;14.25;;;;;30.10;47.28;101032.13;5055354;28;45301;-77
2023/09/12 10:42:52;;;;;;;;;16.25;16.25;;;;;30.09;47.25;101022.97;5055511;28;46217;-77
2023/09/12 10:45:18;;;;;;;;;11.00;11.00;;;;;30.17;46.96;101008.19;5061672;27;45311;-75
2023/09/12 10:47:44;;;;;;;;;15.00;14.25;;;;;30.18;46.59;101000.75;5043382;28;45352;-78
2023/09/12 10:50:09;;;;;;;;;19.50;16.50;;;;;30.17;47.13;100999.03;5075595;28;45543;-79
2023/09/12 10:52:39;;;;;;;;;19.00;15.25;;;;;30.20;46.46;100996.72;5075834;28;45490;-77
2023/09/12 10:55:05;;;;;;;;;13.50;12.25;;;;;30.20;47.03;100993.97;5070256;28;45693;-79
2023/09/12 10:57:31;;;;;;;;;10.00;10.00;;;;;30.23;46.75;100996.34;5056565;28;45358;-78
2023/09/12 10:59:59;;;;;;;;;9.75;9.75;;;;;30.29;47.09;100991.94;5055961;28;45316;-78
2023/09/12 11:02:38;;;;;;;;;8.75;8.75;;;;;30.27;47.14;100996.84;5056167;28;46292;-77
2023/09/12 11:05:06;;;;;;;;;7.00;7.00;;;;;30.22;47.00;100978.03;5055178;28;45427;-77
2023/09/12 11:07:40;;;;;;;;;7.25;5.75;;;;;30.36;47.00;100995.69;5057169;28;45248;-80
2023/09/12 11:10:15;;;;;;;;;8.00;6.00;;;;;30.38;46.67;100988.88;5055156;28;45581;-77
2023/09/12 11:12:41;;;;;;;;;6.50;5.75;;;;;30.39;46.51;100993.38;5055543;28;47237;-78
2023/09/12 11:15:10;;;;;;;;;5.25;5.25;;;;;30.30;46.62;100997.28;5062033;28;45469;-78
2023/09/12 11:17:38;;;;;;;;;5.75;4.50;;;;;30.24;46.79;100994.44;5054628;28;45335;-75
2023/09/12 11:20:09;;;;;;;;;6.50;6.50;;;;;30.18;47.23;101000.75;5054558;28;45363;-76
2023/09/12 11:22:40;;;;;;;;;4.25;4.25;;;;;30.10;45.78;100998.94;5076349;27;46298;-75
2023/09/12 11:25:15;;;;;;;;;10.00;7.00;;;;;30.01;46.88;101003.72;5078123;28;45373;-77
2023/09/12 11:27:50;;;;;;;;;6.00;6.00;;;;;29.94;46.52;101004.66;5078220;28;45511;-77
2023/09/12 11:30:19;;;;;;;;;10.75;7.75;;;;;29.91;47.09;100999.47;5077891;28;45673;-76
2023/09/12 11:32:50;;;;;;;;;7.50;7.50;;;;;29.79;47.52;101007.38;5077629;28;46177;-76
2023/09/12 11:35:16;;;;;;;;;11.75;10.00;;;;;29.83;47.90;101007.84;5059233;28;45342;-77
2023/09/12 11:38:09;;;;;;;;;9.50;9.00;;;;;29.90;46.87;101008.81;5059633;28;45475;-77
2023/09/12 11:40:35;;;;;;;;;9.50;9.00;;;;;30.01;47.18;101014.78;5074817;28;45335;-77
2023/09/12 11:43:01;;;;;;;;;6.75;6.25;;;;;30.15;47.20;101013.03;5077712;28;46132;-76
2023/09/12 11:45:27;;;;;;;;;7.75;6.50;;;;;30.17;46.83;100990.75;5078139;28;45361;-77
2023/09/12 11:47:53;;;;;;;;;9.00;9.00;;;;;30.24;46.56;100988.91;5077857;28;45529;-75
2023/09/12 11:50:37;;;;;;;;;7.75;7.75;;;;;30.30;47.04;100982.59;5077521;28;45314;-75
2023/09/12 11:53:07;;;;;;;;;8.00;7.25;;;;;30.28;46.63;100971.75;5077540;28;46537;-76
2023/09/12 11:55:45;;;;;;;;;7.50;7.50;;;;;30.46;46.78;100985.16;5067819;27;45466;-76
2023/09/12 11:58:11;;;;;;;;;9.00;9.00;;;;;30.61;46.47;100977.72;5054072;28;45485;-76
2023/09/12 12:00:37;;;;;;;;;11.00;8.00;;;;;30.58;46.17;100958.72;5076404;27;45575;-77
2023/09/12 12:03:04;;;;;;;;;9.00;9.00;;;;;30.75;46.21;100967.66;5070696;27;45574;-74
2023/09/12 12:05:29;;;;;;;;;8.75;8.75;;;;;30.74;46.02;100963.16;5061902;27;45311;-75
2023/09/12 12:07:55;;;;;;;;;12.50;12.25;;;;;30.87;46.36;100968.00;5075154;28;45385;-76
2023/09/12 12:10:20;;;;;;;;;8.25;8.00;;;;;30.91;45.58;100963.75;5077626;28;45414;-76
2023/09/12 12:12:46;;;;;;;;;8.50;8.25;;;;;30.85;45.71;100957.13;5072099;27;45453;-76
2023/09/12 12:15:12;;;;;;;;;9.00;8.50;;;;;31.01;45.01;100979.00;5057044;28;45477;-76
2023/09/12 12:17:40;;;;;;;;;6.50;6.00;;;;;31.06;44.75;100972.84;5056364;28;45534;-74
2023/09/12 12:20:09;;;;;;;;;7.25;7.25;;;;;31.01;45.19;100962.38;5056771;28;45351;-76
2023/09/12 12:22:38;;;;;;;;;8.50;7.00;;;;;31.10;44.67;100955.69;5075484;27;45336;-74
2023/09/12 12:25:11;;;;;;;;;9.00;7.00;;;;;31.36;44.96;100966.16;5077155;28;45401;-77
2023/09/12 12:27:38;;;;;;;;;7.00;7.00;;;;;31.56;44.42;100960.75;5071639;27;45462;-76
2023/09/12 12:30:06;;;;;;;;;9.25;8.25;;;;;31.88;44.77;100967.63;5062463;28;45918;-75
2023/09/12 12:32:32;;;;;;;;;7.25;7.25;;;;;32.07;42.97;100966.03;5055880;28;46348;-76
2023/09/12 12:34:57;;;;;;;;;5.75;5.75;;;;;32.23;42.38;100974.06;5055859;28;45418;-75
2023/09/12 12:37:30;;;;;;;;;7.50;7.50;;;;;32.38;43.01;100973.91;5056597;28;45307;-75
2023/09/12 12:39:55;;;;;;;;;10.00;7.75;;;;;32.34;42.85;100973.44;5056402;28;45356;-76
2023/09/12 12:42:23;;;;;;;;;4.75;3.50;;;;;32.48;41.93;100989.09;5056131;28;47305;-75
2023/09/12 12:44:52;;;;;;;;;8.50;8.50;;;;;32.42;42.24;100989.06;5056507;28;45502;-76
2023/09/12 12:47:18;;;;;;;;;9.00;7.75;;;;;32.40;42.68;100997.63;5056420;28;45360;-77
2023/09/12 12:49:43;;;;;;;;;6.00;6.00;;;;;32.33;42.09;100989.22;5055586;28;48387;-76
2023/09/12 12:52:10;;;;;;;;;7.75;7.75;;;;;32.24;42.67;100993.25;5056497;28;47102;-75
2023/09/12 12:54:35;;;;;;;;;9.50;7.00;;;;;32.21;42.56;100984.50;5056217;28;45394;-76
2023/09/12 12:57:02;;;;;;;;;10.25;9.50;;;;;32.05;42.63;100982.88;5056382;28;45395;-75
2023/09/12 12:59:29;;;;;;;;;5.00;5.00;;;;;31.93;42.81;100981.72;5058661;27;45433;-75
2023/09/12 13:01:55;;;;;;;;;8.25;8.00;;;;;31.69;42.63;100996.06;5058683;28;47309;-76
2023/09/12 13:04:20;;;;;;;;;9.50;8.25;;;;;31.47;43.86;100989.69;5056160;28;45228;-76
2023/09/12 13:06:46;;;;;;;;;12.00;8.25;;;;;31.54;43.82;100987.84;5056155;28;45465;-76
2023/09/12 13:09:12;;;;;;;;;8.25;8.25;;;;;31.49;43.62;100990.34;5055957;28;50352;-77
2023/09/12 13:11:38;;;;;;;;;7.00;7.00;;;;;31.32;43.97;100988.91;5060090;27;47043;-76
2023/09/12 13:14:11;;;;;;;;;6.25;6.00;;;;;31.24;44.56;100989.03;5044688;28;45307;-76
2023/09/12 13:16:36;;;;;;;;;11.75;8.75;;;;;31.10;44.30;100985.31;5064188;27;45426;-75
2023/09/12 13:19:03;;;;;;;;;6.50;6.50;;;;;31.04;45.15;100984.16;5063485;27;45440;-74
2023/09/12 13:21:28;;;;;;;;;12.75;11.00;;;;;31.25;45.03;100988.00;5066004;27;45449;-76
2023/09/12 13:23:53;;;;;;;;;8.25;8.25;;;;;31.37;45.12;100986.41;5072354;27;45261;-75
2023/09/12 13:26:19;;;;;;;;;8.25;8.25;;;;;31.35;44.36;100991.28;5065934;28;48499;-76
2023/09/12 13:28:44;;;;;;;;;8.25;6.75;;;;;31.29;44.27;100986.56;5072779;27;45450;-76
2023/09/12 13:31:10;;;;;;;;;10.00;8.75;;;;;31.32;44.85;100991.66;5055862;28;46226;-74
2023/09/12 13:33:35;;;;;;;;;8.00;8.00;;;;;31.34;44.51;100984.03;5063276;27;45350;-74
2023/09/12 13:36:00;;;;;;;;;8.00;7.75;;;;;31.37;43.71;100983.63;5055545;28;45362;-74
2023/09/12 13:38:26;;;;;;;;;6.00;6.00;;;;;31.38;43.60;100986.22;5055747;28;45644;-75
2023/09/12 13:40:51;;;;;;;;;6.50;6.50;;;;;31.37;43.42;100978.94;5065177;28;45449;-77
2023/09/12 13:43:16;;;;;;;;;7.00;7.00;;;;;31.25;42.90;100985.22;5083390;28;45429;-77
2023/09/12 13:45:42;;;;;;;;;7.50;5.00;;;;;31.01;43.59;100973.47;5080175;28;45477;-77
2023/09/12 13:48:08;;;;;;;;;5.75;5.75;;;;;31.02;44.21;100964.09;5063493;28;45705;-77
2023/09/12 13:50:33;;;;;;;;;6.25;6.25;;;;;31.25;44.23;100991.63;5084002;28;45395;-77
2023/09/12 13:53:03;;;;;;;;;9.00;6.75;;;;;31.30;43.75;100966.97;5080026;28;45311;-77
2023/09/12 13:55:28;;;;;;;;;8.75;8.75;;;;;31.36;44.18;100981.91;5070785;28;45370;-77
2023/09/12 13:57:54;;;;;;;;;9.25;8.25;;;;;31.36;44.22;100973.59;5057118;27;45375;-79
2023/09/12 14:00:19;;;;;;;;;12.25;8.75;;;;;31.42;44.72;100978.34;5055479;28;45489;-77
2023/09/12 14:02:44;;;;;;;;;8.00;6.25;;;;;31.43;44.86;100978.16;5059443;28;45487;-78
2023/09/12 14:05:11;;;;;;;;;10.25;8.75;;;;;31.42;44.51;100975.56;5065594;28;45361;-78
2023/09/12 14:07:38;;;;;;;;;8.25;8.25;;;;;31.39;44.91;100976.00;5055017;28;45492;-78
2023/09/12 14:10:08;;;;;;;;;6.75;6.75;;;;;31.42;44.92;100975.56;5055042;28;46761;-77
2023/09/12 14:12:33;;;;;;;;;4.50;4.50;;;;;31.33;44.72;100976.75;5054032;28;45335;-78
2023/09/12 14:14:59;;;;;;;;;9.00;8.50;;;;;31.39;45.24;100981.53;5054985;28;45707;-77
2023/09/12 14:17:24;;;;;;;;;7.50;7.50;;;;;31.45;45.13;100975.19;5054878;28;45501;-76
2023/09/12 14:19:49;;;;;;;;;8.50;8.50;;;;;31.46;44.21;100968.59;5055056;28;45367;-78
2023/09/12 14:22:15;;;;;;;;;7.50;7.50;;;;;31.33;45.18;100972.09;5071948;27;45293;-76
2023/09/12 14:24:40;;;;;;;;;7.00;7.00;;;;;31.28;45.55;100982.91;5075446;28;45376;-78
2023/09/12 14:27:06;;;;;;;;;5.25;5.25;;;;;31.27;45.91;100983.97;5075323;28;45488;-77
2023/09/12 14:29:31;;;;;;;;;6.50;6.00;;;;;31.39;45.17;100976.00;5065106;27;45388;-77
2023/09/12 14:31:59;;;;;;;;;8.75;8.75;;;;;31.31;45.06;100959.47;5055077;28;45281;-76
2023/09/12 14:34:27;;;;;;;;;4.75;4.75;;;;;31.30;44.72;100980.81;5062267;27;45381;-82
2023/09/12 14:36:54;;;;;;;;;5.75;5.75;;;;;31.15;44.84;100980.88;5055007;28;45398;-77
2023/09/12 14:39:20;;;;;;;;;5.25;5.25;;;;;31.04;44.78;100975.00;5055260;28;45417;-78
2023/09/12 14:41:49;;;;;;;;;6.75;6.75;;;;;30.89;45.46;100980.56;5055846;28;45385;-77
2023/09/12 14:44:14;;;;;;;;;5.00;5.00;;;;;30.80;46.07;100977.06;5056096;28;45228;-77
2023/09/12 14:46:40;;;;;;;;;6.00;6.00;;;;;30.69;46.39;100972.06;5055585;28;45282;-77
2023/09/12 14:49:05;;;;;;;;;8.25;7.25;;;;;30.52;46.34;100966.97;5055780;28;52306;-78
2023/09/12 14:51:30;;;;;;;;;7.00;7.00;;;;;30.66;46.74;100986.28;5055436;28;45282;-77
2023/09/12 14:53:56;;;;;;;;;6.75;5.50;;;;;30.65;47.00;100978.19;5055087;28;45451;-78
2023/09/12 14:56:23;;;;;;;;;6.25;5.25;;;;;30.72;46.67;100979.97;5057787;28;45484;-78
2023/09/12 14:58:48;;;;;;;;;5.75;5.75;;;;;30.90;46.47;100982.28;5064017;27;46082;-78
2023/09/12 15:01:14;;;;;;;;;6.00;6.00;;;;;30.83;45.76;100984.13;5055927;28;45322;-77
2023/09/12 15:03:39;;;;;;;;;6.50;6.50;;;;;30.81;46.12;100983.47;5054403;28;45338;-77
2023/09/12 15:06:05;;;;;;;;;5.75;5.75;;;;;30.82;45.71;100982.41;5053855;28;45357;-76
2023/09/12 15:08:31;;;;;;;;;7.00;7.00;;;;;30.76;45.71;100978.53;5054222;28;45479;-78
2023/09/12 15:10:56;;;;;;;;;4.75;4.75;;;;;30.65;46.02;100972.63;5054205;28;45540;-76
2023/09/12 15:13:21;;;;;;;;;5.25;5.25;;;;;30.65;46.26;100965.19;5063307;28;45477;-77
2023/09/12 15:15:46;;;;;;;;;5.75;5.25;;;;;30.71;46.03;100980.19;5053997;28;52402;-77
2023/09/12 15:18:12;;;;;;;;;4.50;4.50;;;;;30.66;46.66;100979.91;5053962;28;46136;-77
2023/09/12 15:20:37;;;;;;;;;5.00;5.00;;;;;30.70;46.65;100967.41;5059388;27;46251;-81
2023/09/12 15:23:04;;;;;;;;;4.50;4.50;;;;;30.80;46.41;100976.22;5079238;28;45372;-81
2023/09/12 15:25:31;;;;;;;;;7.00;7.00;;;;;30.80;46.58;100976.22;5057996;28;46405;-81
2023/09/12 15:27:57;;;;;;;;;7.75;7.75;;;;;30.80;46.61;100971.53;5076114;27;46199;-77
2023/09/12 15:30:22;;;;;;;;;7.00;7.00;;;;;30.92;46.82;100980.19;5058656;28;45312;-79
2023/09/12 15:32:48;;;;;;;;;9.25;7.00;;;;;30.92;46.00;100963.56;5057883;27;45492;-77
2023/09/12 15:35:13;;;;;;;;;7.50;7.50;;;;;30.96;45.86;100967.69;5039504;28;45453;-76
2023/09/12 15:37:39;;;;;;;;;7.50;7.50;;;;;30.82;46.01;100966.66;5053980;28;45351;-78
2023/09/12 15:40:05;;;;;;;;;9.75;9.00;;;;;30.81;46.16;100966.84;5053771;28;45618;-77
2023/09/12 15:42:30;;;;;;;;;7.75;7.75;;;;;30.66;46.53;100969.69;5054002;28;45349;-78
2023/09/12 15:44:55;;;;;;;;;7.75;7.75;;;;;30.57;46.16;100954.25;5054062;28;45320;-79
2023/09/12 15:47:20;;;;;;;;;6.25;6.25;;;;;30.72;46.30;100970.78;5053872;28;45472;-77